Time;durP1;ratioP1;P1;durP2;ratioP2;P2;SDS_P1;SDS_P2;PMS_P1;PMS_P2;Temp;Humidity;BMP_temperature;BMP_pressure;BME280_temperature;BME280_humidity;BME280_pressure;Samples;Min_cycle;Max_cycle;Signal;HPM_P1;HPM_P2
2021/01/16 00:00:19;;;;;;;35.67;23.30;;;0.20;48.70;;;;;;5091428;28;20173;-74
2021/01/16 00:02:45;;;;;;;23.10;20.60;;;0.20;48.80;;;;;;5092073;28;20207;-74
2021/01/16 00:05:15;;;;;;;25.00;20.37;;;0.20;48.70;;;;;;5091790;28;20542;-73
2021/01/16 00:07:42;;;;;;;23.80;21.23;;;0.20;49.30;;;;;;5092040;28;20219;-72
2021/01/16 00:10:09;;;;;;;21.80;17.10;;;0.20;49.30;;;;;;5073275;28;20192;-73
2021/01/16 00:12:34;;;;;;;20.30;18.08;;;0.20;49.30;;;;;;5095175;28;20235;-74
2021/01/16 00:15:00;;;;;;;22.00;18.37;;;0.10;49.50;;;;;;5094042;28;20248;-72
2021/01/16 00:17:25;;;;;;;19.87;16.50;;;0.10;49.30;;;;;;5096630;28;20659;-73
2021/01/16 00:19:51;;;;;;;23.20;17.90;;;0.00;49.90;;;;;;5116440;28;20187;-73
2021/01/16 00:22:16;;;;;;;31.97;19.83;;;0.10;50.00;;;;;;5116722;28;20671;-73
2021/01/16 00:24:42;;;;;;;21.10;18.90;;;0.10;50.10;;;;;;5116205;28;20185;-72
2021/01/16 00:27:07;;;;;;;18.70;16.80;;;0.00;50.20;;;;;;5096319;28;20182;-72
2021/01/16 00:29:33;;;;;;;20.70;18.60;;;0.00;50.00;;;;;;5116320;28;20697;-72
2021/01/16 00:31:58;;;;;;;25.03;17.73;;;0.00;50.30;;;;;;5116179;28;20203;-74
2021/01/16 00:34:24;;;;;;;22.43;17.13;;;0.00;50.60;;;;;;5116116;28;20619;-74
2021/01/16 00:36:49;;;;;;;17.43;15.77;;;0.10;50.50;;;;;;5078060;28;20190;-73
2021/01/16 00:39:15;;;;;;;19.37;17.30;;;0.10;50.50;;;;;;5095423;28;20256;-72
2021/01/16 00:41:40;;;;;;;27.00;17.17;;;0.10;51.50;;;;;;5077794;28;20274;-73
2021/01/16 00:44:06;;;;;;;23.40;17.97;;;0.10;51.30;;;;;;5077700;28;20226;-72
2021/01/16 00:46:33;;;;;;;23.40;19.00;;;0.10;51.20;;;;;;5095758;28;20646;-73
2021/01/16 00:48:59;;;;;;;20.33;17.90;;;0.10;51.20;;;;;;5095568;28;20437;-73
2021/01/16 00:51:24;;;;;;;18.83;16.80;;;0.10;51.20;;;;;;5095487;28;20183;-72
2021/01/16 00:53:50;;;;;;;20.13;18.13;;;0.10;51.10;;;;;;5094970;28;20245;-74
2021/01/16 00:56:15;;;;;;;25.77;16.00;;;0.10;51.30;;;;;;5095234;28;20538;-73
2021/01/16 00:58:41;;;;;;;18.43;16.57;;;0.10;51.40;;;;;;5115753;28;20275;-74
2021/01/16 01:01:06;;;;;;;24.23;17.47;;;0.10;50.90;;;;;;5115065;28;20456;-74
2021/01/16 01:03:32;;;;;;;18.83;16.10;;;0.10;50.90;;;;;;5115758;28;20457;-73
2021/01/16 01:05:57;;;;;;;20.83;16.57;;;0.10;50.80;;;;;;5115188;28;20186;-73
2021/01/16 01:08:32;;;;;;;26.70;15.27;;;0.10;50.50;;;;;;5115296;28;20283;-73
2021/01/16 01:10:58;;;;;;;18.17;16.42;;;0.10;50.30;;;;;;5107626;28;20188;-73
2021/01/16 01:13:23;;;;;;;18.90;16.77;;;0.10;50.40;;;;;;5094872;28;20293;-72
2021/01/16 01:15:49;;;;;;;16.53;14.83;;;0.00;50.70;;;;;;5094480;28;20172;-72
2021/01/16 01:18:15;;;;;;;17.53;15.73;;;0.00;50.80;;;;;;5094363;28;20202;-73
2021/01/16 01:20:40;;;;;;;18.47;16.53;;;0.10;51.00;;;;;;5094464;28;20179;-73
2021/01/16 01:23:06;;;;;;;19.77;15.80;;;0.10;50.90;;;;;;5094430;28;20225;-73
2021/01/16 01:25:32;;;;;;;18.57;16.33;;;0.10;51.00;;;;;;5104812;28;20210;-73
2021/01/16 01:27:59;;;;;;;16.63;14.97;;;0.10;50.20;;;;;;5114611;28;20285;-72
2021/01/16 01:30:26;;;;;;;20.80;18.40;;;0.10;50.00;;;;;;5114429;28;20416;-73
2021/01/16 01:32:53;;;;;;;20.63;17.08;;;0.10;50.00;;;;;;5114353;28;20568;-72
2021/01/16 01:35:20;;;;;;;19.92;16.30;;;0.10;49.90;;;;;;5114454;28;20162;-73
2021/01/16 01:37:47;;;;;;;18.27;16.30;;;0.10;49.80;;;;;;5114599;28;20200;-72
2021/01/16 01:40:14;;;;;;;17.13;15.13;;;0.10;49.90;;;;;;5098548;28;20179;-73
2021/01/16 01:42:40;;;;;;;17.20;15.50;;;0.20;49.80;;;;;;5094424;28;20216;-73
2021/01/16 01:45:08;;;;;;;19.07;17.07;;;0.20;49.50;;;;;;5094235;28;20180;-73
2021/01/16 01:47:36;;;;;;;18.52;16.27;;;0.20;48.70;;;;;;5093612;28;20406;-72
2021/01/16 01:50:07;;;;;;;25.27;16.63;;;0.20;48.60;;;;;;5093844;28;20219;-73
2021/01/16 01:52:34;;;;;;;21.90;17.08;;;0.30;48.60;;;;;;5093276;28;20196;-73
2021/01/16 01:55:00;;;;;;;15.07;13.45;;;0.30;48.40;;;;;;5055532;28;20178;-73
2021/01/16 01:57:26;;;;;;;20.80;15.80;;;0.30;48.60;;;;;;5072987;28;20188;-73
2021/01/16 01:59:54;;;;;;;17.70;15.90;;;0.30;48.80;;;;;;5093360;28;20434;-73
2021/01/16 02:02:20;;;;;;;18.15;16.05;;;0.20;48.50;;;;;;5093667;28;20195;-74
2021/01/16 02:04:47;;;;;;;18.02;16.13;;;0.20;48.40;;;;;;5075433;28;20222;-72
2021/01/16 02:07:24;;;;;;;24.73;16.83;;;0.20;48.60;;;;;;5076593;28;20209;-73
2021/01/16 02:09:51;;;;;;;17.67;15.93;;;0.30;48.80;;;;;;5113826;28;20573;-73
2021/01/16 02:12:17;;;;;;;17.00;15.27;;;0.30;48.60;;;;;;5113430;28;20200;-73
2021/01/16 02:14:45;;;;;;;18.35;16.27;;;0.20;48.60;;;;;;5112424;28;20642;-73
2021/01/16 02:17:15;;;;;;;16.10;14.43;;;0.30;48.60;;;;;;5113560;28;20589;-72
2021/01/16 02:19:59;;;;;;;22.02;17.30;;;0.20;48.80;;;;;;5112974;28;20234;-72
2021/01/16 02:22:28;;;;;;;20.50;16.25;;;0.20;48.90;;;;;;5104851;28;20184;-73
2021/01/16 02:25:11;;;;;;;16.25;14.68;;;0.20;49.00;;;;;;5075147;28;20187;-74
2021/01/16 02:27:45;;;;;;;15.90;13.98;;;0.20;49.10;;;;;;5092741;28;20778;-72
2021/01/16 02:30:12;;;;;;;22.95;14.88;;;0.20;49.00;;;;;;5092842;28;20176;-72
2021/01/16 02:32:39;;;;;;;18.95;16.25;;;0.20;49.10;;;;;;5078986;28;20723;-73
2021/01/16 02:35:07;;;;;;;19.10;17.10;;;0.30;48.90;;;;;;5094981;28;20298;-73
2021/01/16 02:37:55;;;;;;;15.55;14.02;;;0.30;48.70;;;;;;5113367;28;20264;-73
2021/01/16 02:40:31;;;;;;;21.17;15.73;;;0.30;49.60;;;;;;5112284;28;20167;-73
2021/01/16 02:43:02;;;;;;;19.50;15.10;;;0.30;49.80;;;;;;5113119;28;20176;-72
2021/01/16 02:45:36;;;;;;;20.48;15.90;;;0.30;49.50;;;;;;5102449;28;20184;-73
2021/01/16 02:48:17;;;;;;;17.55;15.75;;;0.30;49.40;;;;;;5075052;28;20199;-73
2021/01/16 02:50:49;;;;;;;16.90;15.13;;;0.30;49.40;;;;;;5092593;28;20203;-73
2021/01/16 02:53:18;;;;;;;17.15;15.35;;;0.30;49.50;;;;;;5092894;28;20194;-73
2021/01/16 02:55:44;;;;;;;21.15;17.23;;;0.30;48.90;;;;;;5092859;28;20206;-73
2021/01/16 02:58:10;;;;;;;14.77;13.17;;;0.20;48.70;;;;;;5093050;28;20189;-73
2021/01/16 03:00:36;;;;;;;19.55;16.42;;;0.20;48.70;;;;;;5109900;28;20277;-73
2021/01/16 03:03:02;;;;;;;22.40;15.47;;;0.20;48.30;;;;;;5113070;28;20179;-72
2021/01/16 03:05:27;;;;;;;17.53;15.63;;;0.20;48.50;;;;;;5112716;28;20184;-73
2021/01/16 03:07:54;;;;;;;18.17;16.43;;;0.20;48.40;;;;;;5112568;28;20269;-73
2021/01/16 03:10:23;;;;;;;17.58;15.68;;;0.20;48.60;;;;;;5112036;28;20579;-73
2021/01/16 03:12:51;;;;;;;21.80;17.58;;;0.20;48.60;;;;;;5108342;28;20464;-73
2021/01/16 03:15:18;;;;;;;16.58;15.07;;;0.20;48.80;;;;;;5092263;28;20180;-73
2021/01/16 03:17:45;;;;;;;18.08;16.27;;;0.20;48.80;;;;;;5092372;28;20200;-73
2021/01/16 03:20:13;;;;;;;21.40;15.38;;;0.20;48.60;;;;;;5092194;28;20640;-73
2021/01/16 03:22:39;;;;;;;19.95;15.25;;;0.20;48.70;;;;;;5074222;28;20181;-73
2021/01/16 03:25:05;;;;;;;18.17;16.27;;;0.10;48.70;;;;;;5091916;28;20790;-73
2021/01/16 03:27:30;;;;;;;17.77;15.90;;;0.20;48.90;;;;;;5103987;28;20270;-73
2021/01/16 03:29:56;;;;;;;17.10;15.03;;;0.10;48.90;;;;;;5092346;22;20253;-72
2021/01/16 03:32:22;;;;;;;17.07;15.47;;;0.10;48.60;;;;;;5070533;28;20204;-73
2021/01/16 03:34:48;;;;;;;18.07;15.00;;;0.00;48.90;;;;;;5052556;28;20416;-73
2021/01/16 03:37:19;;;;;;;21.40;16.38;;;0.00;49.10;;;;;;5070753;28;20242;-74
2021/01/16 03:39:45;;;;;;;24.90;17.70;;;0.00;49.00;;;;;;5051922;28;20200;-73
2021/01/16 03:42:10;;;;;;;16.10;14.40;;;0.10;49.10;;;;;;5070943;28;20184;-73
2021/01/16 03:44:37;;;;;;;22.77;16.30;;;0.10;49.10;;;;;;5070664;28;20181;-73
2021/01/16 03:47:03;;;;;;;17.95;15.20;;;0.10;49.20;;;;;;5070554;28;20528;-72
2021/01/16 03:49:29;;;;;;;16.35;14.65;;;0.10;49.00;;;;;;5070338;28;20291;-73
2021/01/16 03:51:55;;;;;;;15.27;13.70;;;0.20;49.10;;;;;;5074042;28;20667;-73
2021/01/16 03:54:20;;;;;;;22.50;16.07;;;0.10;48.70;;;;;;5038420;28;20525;-73
2021/01/16 03:56:46;;;;;;;23.43;14.20;;;0.10;48.80;;;;;;5054680;28;20178;-73
2021/01/16 03:59:11;;;;;;;18.03;14.40;;;0.10;48.70;;;;;;5054374;28;20237;-72
2021/01/16 04:01:38;;;;;;;22.70;17.73;;;0.10;48.80;;;;;;5054624;28;20174;-73
2021/01/16 04:04:04;;;;;;;18.00;16.10;;;0.00;48.30;;;;;;5052664;28;20551;-72
2021/01/16 04:06:30;;;;;;;21.60;15.20;;;0.00;48.80;;;;;;5074946;28;20180;-73
2021/01/16 04:08:56;;;;;;;18.52;14.77;;;0.00;48.90;;;;;;5074162;28;20672;-72
2021/01/16 04:11:21;;;;;;;18.40;15.40;;;0.00;49.00;;;;;;5074532;28;20306;-73
2021/01/16 04:13:47;;;;;;;18.83;17.07;;;0.00;49.00;;;;;;5074616;28;20650;-73
2021/01/16 04:16:13;;;;;;;21.07;17.23;;;0.00;49.00;;;;;;5073400;28;20442;-73
2021/01/16 04:18:38;;;;;;;17.80;15.90;;;0.10;49.00;;;;;;5074162;28;20390;-72
2021/01/16 04:21:04;;;;;;;24.23;15.70;;;0.00;49.00;;;;;;5074094;28;20204;-72
2021/01/16 04:23:31;;;;;;;22.03;16.60;;;0.00;49.00;;;;;;5074452;28;20183;-73
2021/01/16 04:25:57;;;;;;;19.00;17.08;;;0.00;49.00;;;;;;5074240;28;20912;-72
2021/01/16 04:28:23;;;;;;;24.50;17.38;;;0.10;49.30;;;;;;5073901;28;20219;-73
2021/01/16 04:30:48;;;;;;;19.17;17.17;;;0.10;49.00;;;;;;5055390;28;20181;-73
2021/01/16 04:33:14;;;;;;;22.60;17.47;;;0.10;49.20;;;;;;5036182;28;20637;-72
2021/01/16 04:35:40;;;;;;;18.50;16.57;;;0.00;50.90;;;;;;5053946;28;20592;-72
2021/01/16 04:38:06;;;;;;;17.92;15.20;;;0.00;49.00;;;;;;5053879;28;20209;-72
2021/01/16 04:40:32;;;;;;;18.23;16.33;;;0.00;49.30;;;;;;5053797;28;20582;-72
2021/01/16 04:43:02;;;;;;;22.77;16.90;;;-0.10;49.30;;;;;;5055900;28;20200;-74
2021/01/16 04:45:29;;;;;;;18.95;17.02;;;0.00;49.60;;;;;;5073978;28;20400;-73
2021/01/16 04:47:58;;;;;;;19.40;17.08;;;0.00;49.60;;;;;;5074069;28;20200;-74
2021/01/16 04:50:29;;;;;;;19.77;15.00;;;0.00;49.60;;;;;;5073509;28;20239;-73
2021/01/16 04:53:07;;;;;;;20.48;18.38;;;-0.10;49.60;;;;;;5073712;28;20203;-73
2021/01/16 04:55:37;;;;;;;24.08;17.73;;;-0.10;49.40;;;;;;5055490;28;20704;-73
2021/01/16 04:58:08;;;;;;;17.88;15.98;;;-0.10;49.90;;;;;;5057390;28;20185;-73
2021/01/16 05:00:36;;;;;;;19.08;16.70;;;-0.10;49.80;;;;;;5053349;28;20260;-73
2021/01/16 05:03:10;;;;;;;19.80;17.00;;;-0.10;49.40;;;;;;5034606;28;20184;-73
2021/01/16 05:05:41;;;;;;;20.80;18.50;;;-0.10;49.60;;;;;;5035394;28;20183;-72
2021/01/16 05:08:08;;;;;;;18.45;16.55;;;-0.10;49.60;;;;;;5035483;28;20201;-73
2021/01/16 05:10:37;;;;;;;19.27;17.27;;;-0.10;49.60;;;;;;5072227;28;20233;-73
2021/01/16 05:13:04;;;;;;;17.38;15.65;;;-0.10;49.20;;;;;;5073168;28;20208;-72
2021/01/16 05:15:31;;;;;;;24.63;18.52;;;0.00;49.80;;;;;;5073215;28;20176;-73
2021/01/16 05:18:15;;;;;;;19.50;17.40;;;0.00;49.20;;;;;;5073282;28;20173;-73
2021/01/16 05:20:45;;;;;;;22.35;17.63;;;0.00;48.60;;;;;;5061188;28;20215;-73
2021/01/16 05:23:11;;;;;;;18.13;16.27;;;-0.10;48.70;;;;;;5035192;28;20185;-73
2021/01/16 05:25:39;;;;;;;21.50;18.02;;;-0.10;48.90;;;;;;5053309;28;20235;-73
2021/01/16 05:28:06;;;;;;;19.70;17.30;;;-0.10;49.10;;;;;;5052838;28;20204;-72
2021/01/16 05:30:52;;;;;;;18.85;16.27;;;-0.10;49.30;;;;;;5051698;28;20185;-74
2021/01/16 05:33:19;;;;;;;21.40;17.60;;;0.00;49.40;;;;;;5067928;28;20212;-72
2021/01/16 05:35:45;;;;;;;20.35;18.17;;;0.00;50.10;;;;;;5064469;28;20186;-72
2021/01/16 05:38:15;;;;;;;22.57;16.53;;;0.00;49.20;;;;;;5034915;28;20765;-73
2021/01/16 05:40:42;;;;;;;19.15;16.88;;;0.00;49.20;;;;;;5034626;28;20622;-73
2021/01/16 05:43:08;;;;;;;17.73;15.93;;;0.10;48.70;;;;;;5052711;28;20192;-72
2021/01/16 05:45:37;;;;;;;21.23;17.17;;;0.10;48.90;;;;;;5052583;28;20174;-73
2021/01/16 05:48:04;;;;;;;21.17;18.90;;;0.10;48.80;;;;;;5061923;28;20237;-74
2021/01/16 05:50:33;;;;;;;24.50;19.05;;;0.20;48.70;;;;;;5052308;28;20184;-71
2021/01/16 05:52:59;;;;;;;23.08;16.25;;;0.10;48.50;;;;;;5034525;28;20572;-73
2021/01/16 05:55:25;;;;;;;23.17;18.27;;;0.10;48.60;;;;;;5052465;28;20178;-73
2021/01/16 05:58:03;;;;;;;21.37;19.07;;;0.10;48.70;;;;;;5050937;28;20428;-73
2021/01/16 06:00:34;;;;;;;20.15;17.95;;;0.10;48.70;;;;;;5063316;28;20662;-72
2021/01/16 06:03:01;;;;;;;20.58;16.60;;;0.10;48.70;;;;;;5072441;28;20187;-72
2021/01/16 06:05:28;;;;;;;16.60;14.82;;;0.10;48.70;;;;;;5072196;28;20184;-73
2021/01/16 06:07:54;;;;;;;20.65;18.25;;;0.10;48.70;;;;;;5072063;28;20525;-73
2021/01/16 06:10:21;;;;;;;20.90;18.63;;;0.00;48.80;;;;;;5053960;28;20189;-72
2021/01/16 06:12:48;;;;;;;22.02;18.95;;;0.00;48.80;;;;;;5058894;28;20575;-72
2021/01/16 06:15:19;;;;;;;19.35;17.17;;;0.00;49.10;;;;;;5051774;28;20252;-72
2021/01/16 06:17:50;;;;;;;21.17;17.30;;;0.00;49.10;;;;;;5052052;28;20259;-72
2021/01/16 06:20:21;;;;;;;23.23;18.20;;;0.00;49.30;;;;;;5051767;28;20209;-72
2021/01/16 06:22:49;;;;;;;19.50;17.48;;;0.00;49.20;;;;;;5063010;28;20231;-72
2021/01/16 06:25:23;;;;;;;22.15;16.08;;;-0.20;50.30;;;;;;5050569;28;20189;-74
2021/01/16 06:27:50;;;;;;;27.15;20.08;;;-0.20;51.30;;;;;;5052197;28;20185;-73
2021/01/16 06:30:18;;;;;;;22.80;17.50;;;-0.20;50.30;;;;;;5052704;28;20200;-73
2021/01/16 06:32:52;;;;;;;28.88;19.77;;;-0.20;50.40;;;;;;5071617;28;20197;-72
2021/01/16 06:35:19;;;;;;;22.23;17.70;;;-0.30;50.40;;;;;;5072003;28;20163;-74
2021/01/16 06:37:50;;;;;;;25.27;17.77;;;-0.30;38.60;;;;;;5071815;28;20175;-73
2021/01/16 06:40:29;;;;;;;23.17;19.30;;;-0.30;38.80;;;;;;5071479;28;20251;-73
2021/01/16 06:42:55;;;;;;;21.35;18.10;;;-0.40;38.70;;;;;;5057472;28;20290;-73
2021/01/16 06:45:25;;;;;;;28.97;20.03;;;-0.30;38.70;;;;;;5051836;28;20233;-72
2021/01/16 06:47:55;;;;;;;22.13;17.45;;;-0.30;38.70;;;;;;5051572;28;20421;-73
2021/01/16 06:50:21;;;;;;;20.83;16.23;;;-0.30;38.80;;;;;;5051187;28;20183;-73
2021/01/16 06:52:46;;;;;;;19.70;17.77;;;-0.30;38.30;;;;;;5051311;28;20673;-73
2021/01/16 06:55:17;;;;;;;22.47;18.10;;;-0.30;38.50;;;;;;5067232;28;20192;-73
2021/01/16 06:57:43;;;;;;;21.88;17.75;;;-0.30;38.30;;;;;;5071219;28;20260;-73
2021/01/16 07:00:10;;;;;;;22.93;18.27;;;-0.30;38.40;;;;;;5056461;28;20285;-73
2021/01/16 07:02:37;;;;;;;22.88;20.17;;;-0.20;38.10;;;;;;5051068;28;20197;-73
2021/01/16 07:05:17;;;;;;;23.25;18.08;;;-0.20;37.90;;;;;;5051247;28;20557;-73
2021/01/16 07:07:45;;;;;;;27.98;19.08;;;-0.20;37.80;;;;;;5032938;28;20217;-73
2021/01/16 07:10:13;;;;;;;18.33;16.42;;;-0.20;37.60;;;;;;5032748;28;20189;-72
2021/01/16 07:12:44;;;;;;;23.27;18.70;;;-0.20;37.50;;;;;;5058444;28;20205;-76
2021/01/16 07:15:10;;;;;;;27.17;19.20;;;-0.10;37.40;;;;;;5053174;28;20311;-72
2021/01/16 07:17:37;;;;;;;23.65;20.13;;;-0.10;37.50;;;;;;5070987;28;20180;-72
2021/01/16 07:20:05;;;;;;;21.45;17.25;;;-0.10;49.40;;;;;;5070005;28;20648;-71
2021/01/16 07:22:32;;;;;;;19.60;17.60;;;-0.10;49.40;;;;;;5069829;28;20195;-72
2021/01/16 07:25:00;;;;;;;26.58;17.13;;;-0.10;49.10;;;;;;5066989;28;20193;-73
2021/01/16 07:27:26;;;;;;;20.67;18.23;;;0.00;49.40;;;;;;5049994;28;20180;-73
2021/01/16 07:29:57;;;;;;;20.77;18.45;;;0.00;49.40;;;;;;5059023;28;20219;-73
2021/01/16 07:32:40;;;;;;;22.08;17.20;;;0.00;49.40;;;;;;5049592;28;20236;-72
2021/01/16 07:35:08;;;;;;;19.73;17.00;;;0.00;49.10;;;;;;5066926;28;20183;-74
2021/01/16 07:37:34;;;;;;;29.90;20.63;;;0.00;49.30;;;;;;5066366;28;20668;-73
2021/01/16 07:40:00;;;;;;;20.75;18.63;;;0.00;49.60;;;;;;5066998;28;20598;-73
2021/01/16 07:42:27;;;;;;;24.00;17.27;;;0.00;49.50;;;;;;5059192;28;20245;-73
2021/01/16 07:45:09;;;;;;;18.70;16.75;;;0.00;49.40;;;;;;5048407;28;20424;-72
2021/01/16 07:47:41;;;;;;;21.08;17.98;;;0.10;48.80;;;;;;5047217;28;20335;-73
2021/01/16 07:50:19;;;;;;;22.88;19.55;;;0.00;48.90;;;;;;5048227;28;20673;-73
2021/01/16 07:53:01;;;;;;;28.35;20.38;;;0.10;49.00;;;;;;5059993;28;20224;-73
2021/01/16 07:55:36;;;;;;;28.35;19.90;;;0.10;49.00;;;;;;5069000;28;20674;-73
2021/01/16 07:58:23;;;;;;;22.10;18.27;;;0.10;49.00;;;;;;5069265;28;20556;-73
2021/01/16 08:01:28;;;;;;;23.67;18.88;;;0.10;49.30;;;;;;5057032;28;20235;-72
2021/01/16 08:04:24;;;;;;;23.73;19.27;;;0.10;49.20;;;;;;5017214;28;20205;-73
2021/01/16 08:07:05;;;;;;;20.95;18.65;;;0.10;49.10;;;;;;5065650;28;20196;-73
2021/01/16 08:09:48;;;;;;;18.20;16.40;;;0.10;48.90;;;;;;5071019;28;20192;-73
2021/01/16 08:12:14;;;;;;;24.17;20.08;;;0.00;49.10;;;;;;5052815;28;20207;-73
2021/01/16 08:14:41;;;;;;;26.80;20.48;;;0.10;49.50;;;;;;5070837;28;20213;-73
2021/01/16 08:17:29;;;;;;;24.52;17.70;;;0.10;49.80;;;;;;5070364;28;20561;-74
2021/01/16 08:20:08;;;;;;;24.38;19.13;;;0.20;49.50;;;;;;5071280;28;20189;-74
2021/01/16 08:22:41;;;;;;;24.52;18.48;;;0.20;49.60;;;;;;5071346;28;20193;-75
2021/01/16 08:25:12;;;;;;;20.27;17.15;;;0.20;49.00;;;;;;5068851;28;20280;-74
2021/01/16 08:27:48;;;;;;;21.48;19.25;;;0.30;49.10;;;;;;5048390;28;20468;-73
2021/01/16 08:30:19;;;;;;;20.33;17.58;;;0.30;48.50;;;;;;5066253;28;20220;-72
2021/01/16 08:32:57;;;;;;;20.50;15.75;;;0.30;48.70;;;;;;5066603;28;20211;-73
2021/01/16 08:35:28;;;;;;;23.17;18.58;;;0.30;48.10;;;;;;5066370;28;20258;-72
2021/01/16 08:38:14;;;;;;;25.02;19.15;;;0.40;48.10;;;;;;5067020;28;20553;-72
2021/01/16 08:40:39;;;;;;;20.45;16.50;;;0.50;47.70;;;;;;5069559;28;20181;-72
2021/01/16 08:43:05;;;;;;;21.83;17.67;;;0.60;47.40;;;;;;5045888;28;20188;-73
2021/01/16 08:45:30;;;;;;;21.33;18.10;;;0.60;47.60;;;;;;5032546;28;20656;-73
2021/01/16 08:47:59;;;;;;;20.20;15.83;;;0.60;47.00;;;;;;5062846;28;20733;-73
2021/01/16 08:50:43;;;;;;;18.20;15.40;;;0.70;46.40;;;;;;5069515;28;20692;-74
2021/01/16 08:53:20;;;;;;;17.52;15.50;;;0.70;45.90;;;;;;5062699;28;20266;-73
2021/01/16 08:55:46;;;;;;;22.27;18.25;;;0.80;46.00;;;;;;5049335;28;20174;-72
2021/01/16 08:58:11;;;;;;;25.00;16.53;;;0.90;46.10;;;;;;5049882;28;20205;-72
2021/01/16 09:00:38;;;;;;;19.47;17.17;;;1.00;45.70;;;;;;5031495;28;20188;-73
2021/01/16 09:03:11;;;;;;;24.80;18.67;;;1.00;45.80;;;;;;5049464;28;20538;-72
2021/01/16 09:05:38;;;;;;;16.95;15.15;;;1.10;45.90;;;;;;5058559;28;20186;-72
2021/01/16 09:08:20;;;;;;;21.48;15.50;;;1.20;45.00;;;;;;5073052;28;20654;-72
2021/01/16 09:10:46;;;;;;;20.40;16.15;;;1.30;45.10;;;;;;5073019;28;20182;-72
2021/01/16 09:13:29;;;;;;;17.57;13.57;;;1.30;45.10;;;;;;5073259;28;20255;-73
2021/01/16 09:15:57;;;;;;;143.30;71.70;;;1.40;43.60;;;;;;5073151;28;20174;-72
2021/01/16 09:18:23;;;;;;;18.02;15.68;;;1.40;44.00;;;;;;5073466;28;20190;-74
2021/01/16 09:20:51;;;;;;;16.27;14.20;;;1.40;43.70;;;;;;5073128;28;20264;-73
2021/01/16 09:23:21;;;;;;;15.57;14.05;;;1.40;30.80;;;;;;5072935;28;20184;-73
2021/01/16 09:26:03;;;;;;;16.60;14.13;;;1.50;30.10;;;;;;5073218;28;20182;-75
2021/01/16 09:28:47;;;;;;;15.07;13.60;;;1.50;29.70;;;;;;5071149;22;20304;-70
2021/01/16 09:31:41;;;;;;;18.30;14.02;;;1.60;30.20;;;;;;5077413;28;20188;-72
2021/01/16 09:34:12;;;;;;;23.83;14.10;;;1.60;29.70;;;;;;5059856;28;20174;-71
2021/01/16 09:36:57;;;;;;;16.60;14.98;;;1.80;42.60;;;;;;5076029;28;20177;-71
2021/01/16 09:39:24;;;;;;;18.98;12.57;;;1.70;42.30;;;;;;5045745;28;20686;-71
2021/01/16 09:41:55;;;;;;;18.73;16.27;;;1.80;43.40;;;;;;5036164;28;20182;-72
2021/01/16 09:44:39;;;;;;;14.57;13.18;;;1.90;41.80;;;;;;5049588;28;20167;-70
2021/01/16 09:47:25;;;;;;;20.42;17.95;;;1.90;41.50;;;;;;5031794;28;20611;-71
2021/01/16 09:49:51;;;;;;;16.42;14.70;;;1.90;41.20;;;;;;5050027;28;20197;-72
2021/01/16 09:52:16;;;;;;;16.98;13.48;;;1.90;28.70;;;;;;5053097;28;20670;-72
2021/01/16 09:54:51;;;;;;;16.80;14.60;;;2.10;28.50;;;;;;5055986;28;20174;-72
2021/01/16 09:57:36;;;;;;;17.75;15.90;;;2.10;28.70;;;;;;5053172;28;20205;-72
2021/01/16 10:00:26;;;;;;;13.40;12.10;;;2.20;28.60;;;;;;5052886;28;20260;-73
2021/01/16 10:03:08;;;;;;;11.93;10.73;;;2.20;27.50;;;;;;5035089;28;20185;-72
2021/01/16 10:05:41;;;;;;;13.05;11.88;;;2.10;27.20;;;;;;5053631;28;20161;-72
2021/01/16 10:08:08;;;;;;;12.43;11.13;;;2.10;27.10;;;;;;5034932;28;20183;-72
2021/01/16 10:11:01;;;;;;;13.70;12.35;;;2.10;26.50;;;;;;5052559;28;20269;-72
2021/01/16 10:13:37;;;;;;;13.80;12.60;;;2.20;27.40;;;;;;5034976;28;20640;-73
2021/01/16 10:16:08;;;;;;;14.35;12.75;;;2.20;27.10;;;;;;5032744;28;20182;-71
2021/01/16 10:18:35;;;;;;;13.38;11.93;;;2.20;27.00;;;;;;5015423;28;20280;-71
2021/01/16 10:21:19;;;;;;;11.82;10.70;;;2.20;27.20;;;;;;5032908;28;20229;-72
2021/01/16 10:23:45;;;;;;;13.77;11.15;;;2.20;26.60;;;;;;5017846;28;20194;-72
2021/01/16 10:26:18;;;;;;;11.73;10.63;;;2.20;26.50;;;;;;5052663;28;20186;-72
2021/01/16 10:28:52;;;;;;;11.57;10.35;;;2.20;26.60;;;;;;5052941;28;20603;-71
2021/01/16 10:31:26;;;;;;;15.02;11.25;;;2.30;26.70;;;;;;5066879;28;20741;-70
2021/01/16 10:34:05;;;;;;;10.40;9.35;;;2.40;26.60;;;;;;5061046;28;20229;-71
2021/01/16 10:36:32;;;;;;;12.52;11.20;;;2.60;25.60;;;;;;5035168;28;20173;-72
2021/01/16 10:38:58;;;;;;;12.52;11.23;;;2.70;26.20;;;;;;5044832;28;20195;-72
2021/01/16 10:41:32;;;;;;;13.67;12.33;;;2.90;25.50;;;;;;5032659;28;20187;-72
2021/01/16 10:44:00;;;;;;;11.95;10.80;;;3.00;25.30;;;;;;5014712;28;20475;-71
2021/01/16 10:46:32;;;;;;;11.60;9.88;;;3.00;24.40;;;;;;5032318;28;20214;-72
2021/01/16 10:49:18;;;;;;;13.02;11.75;;;3.20;24.40;;;;;;5032211;28;20207;-73
2021/01/16 10:51:47;;;;;;;10.43;9.63;;;3.30;23.70;;;;;;5032242;28;20167;-73
2021/01/16 10:54:14;;;;;;;12.02;10.82;;;3.30;22.50;;;;;;5032185;28;20178;-72
2021/01/16 10:56:44;;;;;;;10.55;9.45;;;3.20;22.40;;;;;;5052637;28;20671;-72
2021/01/16 10:59:13;;;;;;;9.75;8.85;;;3.20;23.10;;;;;;5051948;28;20615;-72
2021/01/16 11:01:49;;;;;;;12.10;11.00;;;3.30;22.10;;;;;;5033952;28;20189;-70
2021/01/16 11:04:21;;;;;;;11.20;8.48;;;3.10;22.00;;;;;;5051980;28;20190;-72
2021/01/16 11:06:49;;;;;;;11.07;10.07;;;3.10;22.80;;;;;;5024561;28;20217;-71
2021/01/16 11:09:33;;;;;;;9.60;8.55;;;3.00;22.70;;;;;;5031328;28;20195;-71
2021/01/16 11:12:00;;;;;;;9.35;8.55;;;3.10;22.40;;;;;;5013978;28;20205;-72
2021/01/16 11:14:36;;;;;;;10.70;9.65;;;3.30;22.10;;;;;;5031579;28;20556;-71
2021/01/16 11:17:03;;;;;;;8.82;8.02;;;3.30;22.20;;;;;;5031353;28;20537;-71
2021/01/16 11:19:32;;;;;;;9.52;8.60;;;3.30;21.20;;;;;;5026023;28;20260;-72
2021/01/16 11:22:06;;;;;;;8.82;8.00;;;3.10;21.40;;;;;;5051277;28;20179;-71
2021/01/16 11:24:53;;;;;;;9.70;8.80;;;2.90;22.00;;;;;;5051425;28;20210;-72
2021/01/16 11:27:20;;;;;;;10.25;9.35;;;2.80;21.60;;;;;;5051059;28;20236;-72
2021/01/16 11:29:46;;;;;;;9.75;8.70;;;2.60;22.80;;;;;;5051166;28;20217;-72
2021/01/16 11:32:15;;;;;;;16.53;10.20;;;2.70;22.80;;;;;;5048502;28;20199;-71
2021/01/16 11:35:08;;;;;;;8.70;7.75;;;2.80;22.90;;;;;;5031561;28;20270;-71
2021/01/16 11:37:51;;;;;;;8.27;7.57;;;3.00;21.50;;;;;;5009731;28;20270;-71
2021/01/16 11:40:45;;;;;;;7.93;7.30;;;2.90;20.60;;;;;;5031174;28;20203;-71
2021/01/16 11:43:10;;;;;;;9.07;8.38;;;2.90;20.40;;;;;;5031352;28;20186;-71
2021/01/16 11:45:37;;;;;;;9.40;8.47;;;2.80;21.40;;;;;;5029938;28;20179;-72
2021/01/16 11:48:05;;;;;;;10.52;9.52;;;2.70;20.70;;;;;;5046071;28;20265;-72
2021/01/16 11:50:32;;;;;;;10.52;9.52;;;2.60;21.40;;;;;;5050734;28;20256;-71
2021/01/16 11:53:11;;;;;;;11.25;10.25;;;2.50;21.50;;;;;;5050830;28;20233;-71
2021/01/16 11:55:37;;;;;;;7.60;7.03;;;2.30;21.60;;;;;;5051482;28;20542;-72
2021/01/16 11:58:04;;;;;;;10.40;9.43;;;2.40;20.60;;;;;;5045920;28;20221;-72
2021/01/16 12:00:31;;;;;;;8.43;7.70;;;2.50;20.20;;;;;;5031528;28;20213;-72
2021/01/16 12:02:58;;;;;;;9.98;8.55;;;2.60;19.90;;;;;;5032863;28;20182;-71
2021/01/16 12:05:25;;;;;;;11.75;9.23;;;2.50;20.70;;;;;;5033240;28;20213;-73
2021/01/16 12:07:55;;;;;;;10.38;9.43;;;2.60;21.50;;;;;;5051329;28;20182;-74
2021/01/16 12:10:26;;;;;;;9.98;8.82;;;2.60;21.30;;;;;;5020477;28;20290;-73
2021/01/16 12:12:53;;;;;;;12.25;11.05;;;2.60;20.30;;;;;;5035087;28;20215;-73
2021/01/16 12:15:26;;;;;;;9.73;8.95;;;2.70;20.90;;;;;;5020872;28;20210;-73
2021/01/16 12:17:53;;;;;;;9.60;8.70;;;2.80;20.30;;;;;;5041082;28;20206;-73
2021/01/16 12:20:22;;;;;;;11.15;10.07;;;2.80;19.50;;;;;;5053628;28;20256;-72
2021/01/16 12:22:51;;;;;;;9.93;9.13;;;2.80;19.70;;;;;;5054396;28;20200;-72
2021/01/16 12:25:18;;;;;;;10.63;9.80;;;2.80;19.20;;;;;;5050965;28;20190;-72
2021/01/16 12:27:51;;;;;;;8.75;7.95;;;2.90;18.80;;;;;;5034746;28;20187;-72
2021/01/16 12:30:21;;;;;;;9.50;8.57;;;2.90;19.10;;;;;;5034272;28;20214;-72
2021/01/16 12:32:49;;;;;;;10.35;8.52;;;2.90;18.80;;;;;;5017230;28;20206;-72
2021/01/16 12:35:21;;;;;;;10.88;9.05;;;2.80;19.70;;;;;;5047047;28;20183;-72
2021/01/16 12:37:46;;;;;;;11.48;10.40;;;2.90;20.10;;;;;;5062095;28;20206;-73
2021/01/16 12:40:16;;;;;;;10.43;9.63;;;2.90;20.10;;;;;;5043210;28;20751;-73
2021/01/16 12:42:41;;;;;;;9.90;9.10;;;3.00;20.00;;;;;;5036579;28;20186;-73
2021/01/16 12:45:09;;;;;;;9.80;8.90;;;3.20;19.60;;;;;;5034991;28;20583;-73
2021/01/16 12:47:37;;;;;;;10.45;9.48;;;3.30;19.10;;;;;;5030306;28;20183;-73
2021/01/16 12:50:04;;;;;;;11.80;10.48;;;3.40;19.10;;;;;;5013174;28;20203;-73
2021/01/16 12:52:31;;;;;;;12.18;11.02;;;3.50;19.20;;;;;;5030307;28;20240;-73